sensor_id;sensor_type;location;lat;lon;timestamp;temperature;humidity
78708;SHT31;68037;51.978;5.650;2023-07-24T06:29:14;20.4;72.0
78708;SHT31;68037;51.978;5.650;2023-07-24T06:31:44;20.4;72.5
78708;SHT31;68037;51.978;5.650;2023-07-24T06:34:14;20.4;72.7
78708;SHT31;68037;51.978;5.650;2023-07-24T06:36:43;20.4;71.9
78708;SHT31;68037;51.978;5.650;2023-07-24T06:39:13;20.4;72.2
78708;SHT31;68037;51.978;5.650;2023-07-24T07:10:27;21.1;69.2
78708;SHT31;68037;51.978;5.650;2023-07-24T07:12:57;21.0;70.0
78708;SHT31;68037;51.978;5.650;2023-07-24T07:15:26;21.0;70.4
78708;SHT31;68037;51.978;5.650;2023-07-24T07:17:55;21.1;69.6
78708;SHT31;68037;51.978;5.650;2023-07-24T07:20:25;21.1;69.1
78708;SHT31;68037;51.978;5.650;2023-07-24T07:22:55;21.0;68.2
78708;SHT31;68037;51.978;5.650;2023-07-24T07:25:24;21.0;68.2
78708;SHT31;68037;51.978;5.650;2023-07-24T07:27:54;20.9;69.3
78708;SHT31;68037;51.978;5.650;2023-07-24T07:30:23;20.9;69.7
78708;SHT31;68037;51.978;5.650;2023-07-24T07:32:55;20.9;70.2
78708;SHT31;68037;51.978;5.650;2023-07-24T07:35:24;20.9;70.2
78708;SHT31;68037;51.978;5.650;2023-07-24T07:37:54;20.9;69.2
78708;SHT31;68037;51.978;5.650;2023-07-24T07:40:24;20.9;69.4
78708;SHT31;68037;51.978;5.650;2023-07-24T07:42:54;20.9;69.6
78708;SHT31;68037;51.978;5.650;2023-07-24T07:45:24;20.9;69.2
78708;SHT31;68037;51.978;5.650;2023-07-24T07:47:54;20.9;67.9
78708;SHT31;68037;51.978;5.650;2023-07-24T07:50:25;20.9;70.2
78708;SHT31;68037;51.978;5.650;2023-07-24T07:52:57;20.8;71.2
78708;SHT31;68037;51.978;5.650;2023-07-24T07:55:26;20.6;71.8
78708;SHT31;68037;51.978;5.650;2023-07-24T07:57:55;20.4;72.4
78708;SHT31;68037;51.978;5.650;2023-07-24T08:00:25;20.4;73.3
78708;SHT31;68037;51.978;5.650;2023-07-24T08:02:55;20.3;74.4
78708;SHT31;68037;51.978;5.650;2023-07-24T08:05:24;20.2;74.3
78708;SHT31;68037;51.978;5.650;2023-07-24T08:07:54;20.2;75.0
78708;SHT31;68037;51.978;5.650;2023-07-24T08:10:23;20.1;75.1
78708;SHT31;68037;51.978;5.650;2023-07-24T08:12:53;20.1;75.2
78708;SHT31;68037;51.978;5.650;2023-07-24T08:15:23;20.1;74.1
78708;SHT31;68037;51.978;5.650;2023-07-24T08:17:52;20.1;74.8
78708;SHT31;68037;51.978;5.650;2023-07-24T08:20:22;20.1;75.3
78708;SHT31;68037;51.978;5.650;2023-07-24T08:22:51;20.1;73.8
78708;SHT31;68037;51.978;5.650;2023-07-24T08:25:20;20.2;72.6
78708;SHT31;68037;51.978;5.650;2023-07-24T08:27:50;20.3;73.3
78708;SHT31;68037;51.978;5.650;2023-07-24T08:30:21;20.3;72.2
78708;SHT31;68037;51.978;5.650;2023-07-24T08:32:51;20.3;72.8
78708;SHT31;68037;51.978;5.650;2023-07-24T08:35:21;20.4;71.7
78708;SHT31;68037;51.978;5.650;2023-07-24T08:37:52;20.4;71.9
78708;SHT31;68037;51.978;5.650;2023-07-24T08:40:24;20.5;71.8
78708;SHT31;68037;51.978;5.650;2023-07-24T08:42:54;20.5;71.7
78708;SHT31;68037;51.978;5.650;2023-07-24T08:45:25;20.6;71.9
78708;SHT31;68037;51.978;5.650;2023-07-24T08:47:55;20.7;70.0
78708;SHT31;68037;51.978;5.650;2023-07-24T08:50:26;20.8;68.8
78708;SHT31;68037;51.978;5.650;2023-07-24T08:52:57;20.9;68.2
78708;SHT31;68037;51.978;5.650;2023-07-24T08:55:27;20.9;68.9
78708;SHT31;68037;51.978;5.650;2023-07-24T08:57:57;20.9;68.7
78708;SHT31;68037;51.978;5.650;2023-07-24T09:00:27;21.0;67.3
78708;SHT31;68037;51.978;5.650;2023-07-24T09:02:57;21.0;68.2
78708;SHT31;68037;51.978;5.650;2023-07-24T09:05:27;21.0;67.1
78708;SHT31;68037;51.978;5.650;2023-07-24T09:07:57;21.1;68.4
78708;SHT31;68037;51.978;5.650;2023-07-24T09:10:27;21.1;68.4
78708;SHT31;68037;51.978;5.650;2023-07-24T09:12:57;21.1;68.2
78708;SHT31;68037;51.978;5.650;2023-07-24T09:15:26;21.2;67.8
78708;SHT31;68037;51.978;5.650;2023-07-24T09:17:56;21.2;68.9
78708;SHT31;68037;51.978;5.650;2023-07-24T09:20:25;21.3;67.7
78708;SHT31;68037;51.978;5.650;2023-07-24T09:22:56;21.5;66.1
78708;SHT31;68037;51.978;5.650;2023-07-24T09:25:32;21.6;65.9
78708;SHT31;68037;51.978;5.650;2023-07-24T09:28:11;21.7;65.3
78708;SHT31;68037;51.978;5.650;2023-07-24T09:30:53;21.8;65.7
78708;SHT31;68037;51.978;5.650;2023-07-24T09:33:24;21.9;65.0
78708;SHT31;68037;51.978;5.650;2023-07-24T09:35:59;22.0;64.7
78708;SHT31;68037;51.978;5.650;2023-07-24T09:38:29;22.1;64.6
78708;SHT31;68037;51.978;5.650;2023-07-24T09:41:02;22.2;63.8
78708;SHT31;68037;51.978;5.650;2023-07-24T09:43:33;22.3;62.3
78708;SHT31;68037;51.978;5.650;2023-07-24T09:46:05;22.4;61.1
78708;SHT31;68037;51.978;5.650;2023-07-24T09:48:36;22.4;60.0
78708;SHT31;68037;51.978;5.650;2023-07-24T09:51:10;22.4;59.8
78708;SHT31;68037;51.978;5.650;2023-07-24T09:53:46;22.4;60.3
78708;SHT31;68037;51.978;5.650;2023-07-24T09:56:17;22.3;59.9
78708;SHT31;68037;51.978;5.650;2023-07-24T09:58:48;22.3;60.2
78708;SHT31;68037;51.978;5.650;2023-07-24T10:01:21;22.2;61.1
78708;SHT31;68037;51.978;5.650;2023-07-24T10:03:53;22.2;61.3
78708;SHT31;68037;51.978;5.650;2023-07-24T10:06:24;22.2;60.9
78708;SHT31;68037;51.978;5.650;2023-07-24T10:08:54;22.2;60.3
78708;SHT31;68037;51.978;5.650;2023-07-24T10:11:25;22.2;60.7
78708;SHT31;68037;51.978;5.650;2023-07-24T10:13:57;22.3;60.3
78708;SHT31;68037;51.978;5.650;2023-07-24T10:16:27;22.3;62.0
78708;SHT31;68037;51.978;5.650;2023-07-24T10:18:59;22.3;61.8
78708;SHT31;68037;51.978;5.650;2023-07-24T10:21:31;22.3;60.0
78708;SHT31;68037;51.978;5.650;2023-07-24T10:24:03;22.3;59.8
78708;SHT31;68037;51.978;5.650;2023-07-24T10:26:34;22.3;60.5
78708;SHT31;68037;51.978;5.650;2023-07-24T10:29:08;22.4;60.5
78708;SHT31;68037;51.978;5.650;2023-07-24T10:31:38;22.4;60.2
78708;SHT31;68037;51.978;5.650;2023-07-24T10:34:08;22.5;60.3
78708;SHT31;68037;51.978;5.650;2023-07-24T10:36:38;22.5;59.5
78708;SHT31;68037;51.978;5.650;2023-07-24T10:39:16;22.5;60.3
78708;SHT31;68037;51.978;5.650;2023-07-24T10:41:48;22.6;60.5
78708;SHT31;68037;51.978;5.650;2023-07-24T10:44:17;22.6;59.5
78708;SHT31;68037;51.978;5.650;2023-07-24T10:46:47;22.6;59.9
78708;SHT31;68037;51.978;5.650;2023-07-24T10:49:23;22.7;59.9
78708;SHT31;68037;51.978;5.650;2023-07-24T10:51:57;22.7;60.8
78708;SHT31;68037;51.978;5.650;2023-07-24T10:54:26;22.7;60.2
78708;SHT31;68037;51.978;5.650;2023-07-24T10:57:00;22.7;60.4
78708;SHT31;68037;51.978;5.650;2023-07-24T10:59:47;22.7;60.2
78708;SHT31;68037;51.978;5.650;2023-07-24T11:02:17;22.7;60.5
78708;SHT31;68037;51.978;5.650;2023-07-24T11:04:46;22.7;60.0
78708;SHT31;68037;51.978;5.650;2023-07-24T11:07:17;22.7;61.0
78708;SHT31;68037;51.978;5.650;2023-07-24T11:09:46;22.8;61.1
78708;SHT31;68037;51.978;5.650;2023-07-24T11:12:18;22.8;60.7
78708;SHT31;68037;51.978;5.650;2023-07-24T11:14:52;22.9;59.6
78708;SHT31;68037;51.978;5.650;2023-07-24T11:17:35;22.9;61.4
78708;SHT31;68037;51.978;5.650;2023-07-24T11:20:11;23.1;58.6
78708;SHT31;68037;51.978;5.650;2023-07-24T11:22:42;23.2;58.3
78708;SHT31;68037;51.978;5.650;2023-07-24T11:25:12;23.2;58.4
78708;SHT31;68037;51.978;5.650;2023-07-24T11:27:43;23.2;58.5
78708;SHT31;68037;51.978;5.650;2023-07-24T11:30:19;23.2;57.8
78708;SHT31;68037;51.978;5.650;2023-07-24T11:32:50;23.2;57.4
78708;SHT31;68037;51.978;5.650;2023-07-24T11:35:20;23.2;57.7
78708;SHT31;68037;51.978;5.650;2023-07-24T11:37:53;23.1;58.4
78708;SHT31;68037;51.978;5.650;2023-07-24T11:40:33;23.1;59.3
78708;SHT31;68037;51.978;5.650;2023-07-24T11:43:04;23.2;58.9
78708;SHT31;68037;51.978;5.650;2023-07-24T11:45:42;23.2;58.7
78708;SHT31;68037;51.978;5.650;2023-07-24T11:48:12;23.3;57.5
78708;SHT31;68037;51.978;5.650;2023-07-24T11:50:46;23.3;57.1
78708;SHT31;68037;51.978;5.650;2023-07-24T11:53:25;23.3;56.7
78708;SHT31;68037;51.978;5.650;2023-07-24T11:55:56;23.2;57.0
78708;SHT31;68037;51.978;5.650;2023-07-24T11:58:28;23.2;57.2
78708;SHT31;68037;51.978;5.650;2023-07-24T12:00:58;23.2;57.6
78708;SHT31;68037;51.978;5.650;2023-07-24T12:03:28;23.2;58.2
78708;SHT31;68037;51.978;5.650;2023-07-24T12:05:59;23.2;58.2
78708;SHT31;68037;51.978;5.650;2023-07-24T12:08:35;23.1;60.0
78708;SHT31;68037;51.978;5.650;2023-07-24T12:11:15;23.1;60.7
78708;SHT31;68037;51.978;5.650;2023-07-24T12:13:41;23.1;60.1
78708;SHT31;68037;51.978;5.650;2023-07-24T12:16:10;23.0;60.1
78708;SHT31;68037;51.978;5.650;2023-07-24T12:18:40;23.0;62.3
78708;SHT31;68037;51.978;5.650;2023-07-24T12:21:09;22.9;63.7
78708;SHT31;68037;51.978;5.650;2023-07-24T12:23:39;22.8;63.0
78708;SHT31;68037;51.978;5.650;2023-07-24T12:26:09;22.7;63.4
78708;SHT31;68037;51.978;5.650;2023-07-24T12:28:38;22.6;64.6
78708;SHT31;68037;51.978;5.650;2023-07-24T12:31:08;22.5;65.1
78708;SHT31;68037;51.978;5.650;2023-07-24T12:33:37;22.4;66.4
78708;SHT31;68037;51.978;5.650;2023-07-24T12:36:07;22.3;68.0
78708;SHT31;68037;51.978;5.650;2023-07-24T12:38:36;22.3;68.0
78708;SHT31;68037;51.978;5.650;2023-07-24T12:41:06;22.2;68.1
78708;SHT31;68037;51.978;5.650;2023-07-24T12:43:35;22.1;68.6
78708;SHT31;68037;51.978;5.650;2023-07-24T12:46:05;22.0;69.5
78708;SHT31;68037;51.978;5.650;2023-07-24T12:48:34;22.0;70.4
78708;SHT31;68037;51.978;5.650;2023-07-24T12:51:06;22.0;69.0
78708;SHT31;68037;51.978;5.650;2023-07-24T12:53:36;22.0;69.4
78708;SHT31;68037;51.978;5.650;2023-07-24T12:56:05;22.1;66.9
78708;SHT31;68037;51.978;5.650;2023-07-24T12:58:35;22.2;65.9
78708;SHT31;68037;51.978;5.650;2023-07-24T13:01:04;22.3;64.2
78708;SHT31;68037;51.978;5.650;2023-07-24T13:03:34;22.4;64.8
78708;SHT31;68037;51.978;5.650;2023-07-24T13:06:04;22.6;65.5
78708;SHT31;68037;51.978;5.650;2023-07-24T13:08:34;22.7;62.8
78708;SHT31;68037;51.978;5.650;2023-07-24T13:11:04;22.8;63.5
78708;SHT31;68037;51.978;5.650;2023-07-24T13:13:33;22.9;63.8
78708;SHT31;68037;51.978;5.650;2023-07-24T13:16:04;23.1;62.0
78708;SHT31;68037;51.978;5.650;2023-07-24T13:18:34;23.2;61.4
78708;SHT31;68037;51.978;5.650;2023-07-24T13:21:03;23.3;60.5
78708;SHT31;68037;51.978;5.650;2023-07-24T13:23:35;23.4;60.6
78708;SHT31;68037;51.978;5.650;2023-07-24T13:26:04;23.5;60.1
78708;SHT31;68037;51.978;5.650;2023-07-24T13:28:35;23.6;59.1
78708;SHT31;68037;51.978;5.650;2023-07-24T13:31:17;23.7;58.9
78708;SHT31;68037;51.978;5.650;2023-07-24T13:33:47;23.8;59.2
78708;SHT31;68037;51.978;5.650;2023-07-24T13:36:17;23.9;58.8
78708;SHT31;68037;51.978;5.650;2023-07-24T13:38:46;24.0;58.5
78708;SHT31;68037;51.978;5.650;2023-07-24T13:41:17;24.1;58.0
78708;SHT31;68037;51.978;5.650;2023-07-24T13:43:47;24.2;58.3
78708;SHT31;68037;51.978;5.650;2023-07-24T13:46:18;24.3;58.1
78708;SHT31;68037;51.978;5.650;2023-07-24T13:48:48;24.4;57.0
78708;SHT31;68037;51.978;5.650;2023-07-24T13:51:17;24.6;57.5
78708;SHT31;68037;51.978;5.650;2023-07-24T13:53:47;24.7;56.2
78708;SHT31;68037;51.978;5.650;2023-07-24T13:56:19;24.7;56.7
78708;SHT31;68037;51.978;5.650;2023-07-24T13:58:50;24.8;55.2
78708;SHT31;68037;51.978;5.650;2023-07-24T14:01:20;24.8;54.8
78708;SHT31;68037;51.978;5.650;2023-07-24T14:03:49;24.9;54.2
78708;SHT31;68037;51.978;5.650;2023-07-24T14:06:19;24.8;54.2
78708;SHT31;68037;51.978;5.650;2023-07-24T14:08:48;24.8;54.5
78708;SHT31;68037;51.978;5.650;2023-07-24T14:11:18;24.8;54.2
78708;SHT31;68037;51.978;5.650;2023-07-24T14:13:48;24.7;53.5
78708;SHT31;68037;51.978;5.650;2023-07-24T14:16:17;24.7;54.7
78708;SHT31;68037;51.978;5.650;2023-07-24T14:18:47;24.7;54.9
78708;SHT31;68037;51.978;5.650;2023-07-24T14:21:17;24.7;54.7
78708;SHT31;68037;51.978;5.650;2023-07-24T14:23:47;24.8;54.4
78708;SHT31;68037;51.978;5.650;2023-07-24T14:26:17;24.8;54.4
78708;SHT31;68037;51.978;5.650;2023-07-24T14:28:46;24.9;54.0
78708;SHT31;68037;51.978;5.650;2023-07-24T14:31:16;24.9;54.2
78708;SHT31;68037;51.978;5.650;2023-07-24T14:33:46;24.9;54.3
78708;SHT31;68037;51.978;5.650;2023-07-24T14:36:15;24.9;54.3
78708;SHT31;68037;51.978;5.650;2023-07-24T14:38:47;24.8;54.7
78708;SHT31;68037;51.978;5.650;2023-07-24T14:41:20;24.8;56.3
78708;SHT31;68037;51.978;5.650;2023-07-24T14:43:50;24.5;59.0
78708;SHT31;68037;51.978;5.650;2023-07-24T14:46:19;24.1;62.2
78708;SHT31;68037;51.978;5.650;2023-07-24T14:48:49;23.9;63.8
78708;SHT31;68037;51.978;5.650;2023-07-24T14:51:18;23.7;64.3
78708;SHT31;68037;51.978;5.650;2023-07-24T14:53:48;23.5;64.3
78708;SHT31;68037;51.978;5.650;2023-07-24T14:56:20;23.4;63.2
78708;SHT31;68037;51.978;5.650;2023-07-24T14:58:50;23.2;64.2
78708;SHT31;68037;51.978;5.650;2023-07-24T15:01:19;23.1;65.1
78708;SHT31;68037;51.978;5.650;2023-07-24T15:03:49;23.0;63.9
78708;SHT31;68037;51.978;5.650;2023-07-24T15:06:18;23.0;65.2
78708;SHT31;68037;51.978;5.650;2023-07-24T15:08:49;23.0;65.4
78708;SHT31;68037;51.978;5.650;2023-07-24T15:11:21;23.0;64.8
78708;SHT31;68037;51.978;5.650;2023-07-24T15:13:52;23.0;65.4
78708;SHT31;68037;51.978;5.650;2023-07-24T15:16:22;23.0;67.1
78708;SHT31;68037;51.978;5.650;2023-07-24T15:18:52;23.0;64.8
78708;SHT31;68037;51.978;5.650;2023-07-24T15:21:22;23.0;65.5
78708;SHT31;68037;51.978;5.650;2023-07-24T15:23:51;23.0;67.0
78708;SHT31;68037;51.978;5.650;2023-07-24T15:26:21;23.1;65.7
78708;SHT31;68037;51.978;5.650;2023-07-24T15:28:51;23.1;66.9
78708;SHT31;68037;51.978;5.650;2023-07-24T15:31:21;23.1;65.6
78708;SHT31;68037;51.978;5.650;2023-07-24T15:33:52;23.2;65.7
78708;SHT31;68037;51.978;5.650;2023-07-24T15:36:22;23.3;64.8
78708;SHT31;68037;51.978;5.650;2023-07-24T15:38:51;23.6;63.9
78708;SHT31;68037;51.978;5.650;2023-07-24T15:41:21;24.0;64.2
78708;SHT31;68037;51.978;5.650;2023-07-24T15:43:50;24.4;61.2
78708;SHT31;68037;51.978;5.650;2023-07-24T15:46:20;24.9;59.0
78708;SHT31;68037;51.978;5.650;2023-07-24T15:48:50;25.2;57.9
78708;SHT31;68037;51.978;5.650;2023-07-24T15:51:19;25.5;55.7
78708;SHT31;68037;51.978;5.650;2023-07-24T15:53:49;25.6;56.3
78708;SHT31;68037;51.978;5.650;2023-07-24T15:56:20;25.6;54.2
78708;SHT31;68037;51.978;5.650;2023-07-24T15:58:50;25.6;54.0
78708;SHT31;68037;51.978;5.650;2023-07-24T16:01:20;25.5;53.1
78708;SHT31;68037;51.978;5.650;2023-07-24T16:03:49;25.4;53.2
78708;SHT31;68037;51.978;5.650;2023-07-24T16:06:22;25.3;53.4
78708;SHT31;68037;51.978;5.650;2023-07-24T16:08:52;25.2;54.5
78708;SHT31;68037;51.978;5.650;2023-07-24T16:11:21;25.0;54.0
78708;SHT31;68037;51.978;5.650;2023-07-24T16:13:51;24.9;54.2
78708;SHT31;68037;51.978;5.650;2023-07-24T16:16:20;24.7;54.5
78708;SHT31;68037;51.978;5.650;2023-07-24T16:19:16;24.6;53.6
78708;SHT31;68037;51.978;5.650;2023-07-24T16:21:49;24.5;54.3
78708;SHT31;68037;51.978;5.650;2023-07-24T16:24:19;24.5;52.7
78708;SHT31;68037;51.978;5.650;2023-07-24T16:26:49;24.4;53.2
78708;SHT31;68037;51.978;5.650;2023-07-24T16:29:19;24.4;52.8
78708;SHT31;68037;51.978;5.650;2023-07-24T16:31:48;24.4;53.1
78708;SHT31;68037;51.978;5.650;2023-07-24T16:34:18;24.3;52.6
78708;SHT31;68037;51.978;5.650;2023-07-24T16:36:48;24.3;52.8
78708;SHT31;68037;51.978;5.650;2023-07-24T16:39:18;24.3;52.7
78708;SHT31;68037;51.978;5.650;2023-07-24T16:41:48;24.2;53.2
78708;SHT31;68037;51.978;5.650;2023-07-24T16:44:18;24.1;53.4
78708;SHT31;68037;51.978;5.650;2023-07-24T16:46:49;24.0;53.9
78708;SHT31;68037;51.978;5.650;2023-07-24T16:49:20;23.9;53.9
78708;SHT31;68037;51.978;5.650;2023-07-24T16:51:49;23.9;54.2
78708;SHT31;68037;51.978;5.650;2023-07-24T16:54:19;23.8;54.3
78708;SHT31;68037;51.978;5.650;2023-07-24T16:56:49;23.7;54.7
78708;SHT31;68037;51.978;5.650;2023-07-24T16:59:19;23.6;54.1
78708;SHT31;68037;51.978;5.650;2023-07-24T17:01:50;23.5;54.0
78708;SHT31;68037;51.978;5.650;2023-07-24T17:04:20;23.3;54.2
78708;SHT31;68037;51.978;5.650;2023-07-24T17:06:49;23.2;54.0
78708;SHT31;68037;51.978;5.650;2023-07-24T17:09:18;23.1;54.7
78708;SHT31;68037;51.978;5.650;2023-07-24T17:11:48;23.0;54.6
78708;SHT31;68037;51.978;5.650;2023-07-24T17:14:18;22.9;54.3
78708;SHT31;68037;51.978;5.650;2023-07-24T17:16:47;22.8;54.8
78708;SHT31;68037;51.978;5.650;2023-07-24T17:19:17;22.7;55.2
78708;SHT31;68037;51.978;5.650;2023-07-24T17:21:48;22.6;54.9
78708;SHT31;68037;51.978;5.650;2023-07-24T17:24:18;22.6;55.4
78708;SHT31;68037;51.978;5.650;2023-07-24T17:26:49;22.5;55.7
78708;SHT31;68037;51.978;5.650;2023-07-24T17:29:19;22.5;55.6
78708;SHT31;68037;51.978;5.650;2023-07-24T17:31:48;22.5;55.0
78708;SHT31;68037;51.978;5.650;2023-07-24T17:34:18;22.4;54.8
78708;SHT31;68037;51.978;5.650;2023-07-24T17:36:47;22.4;54.7
78708;SHT31;68037;51.978;5.650;2023-07-24T17:39:17;22.4;54.7
78708;SHT31;68037;51.978;5.650;2023-07-24T17:41:47;22.3;55.2
78708;SHT31;68037;51.978;5.650;2023-07-24T17:44:16;22.3;55.4
78708;SHT31;68037;51.978;5.650;2023-07-24T17:46:46;22.3;55.7
78708;SHT31;68037;51.978;5.650;2023-07-24T17:49:16;22.2;56.1
78708;SHT31;68037;51.978;5.650;2023-07-24T17:51:45;22.2;56.3
78708;SHT31;68037;51.978;5.650;2023-07-24T17:54:15;22.1;55.7
78708;SHT31;68037;51.978;5.650;2023-07-24T17:56:46;22.1;56.0
78708;SHT31;68037;51.978;5.650;2023-07-24T17:59:16;22.0;56.3
78708;SHT31;68037;51.978;5.650;2023-07-24T18:01:45;22.0;56.8
78708;SHT31;68037;51.978;5.650;2023-07-24T18:04:15;21.9;56.9
78708;SHT31;68037;51.978;5.650;2023-07-24T18:06:44;21.9;57.1
78708;SHT31;68037;51.978;5.650;2023-07-24T18:09:14;21.9;57.5
78708;SHT31;68037;51.978;5.650;2023-07-24T18:11:44;21.8;57.2
78708;SHT31;68037;51.978;5.650;2023-07-24T18:14:14;21.8;57.3
78708;SHT31;68037;51.978;5.650;2023-07-24T18:16:47;21.8;57.5
78708;SHT31;68037;51.978;5.650;2023-07-24T18:19:17;21.7;57.9
78708;SHT31;68037;51.978;5.650;2023-07-24T18:21:46;21.7;58.2
78708;SHT31;68037;51.978;5.650;2023-07-24T18:24:17;21.6;58.4
78708;SHT31;68037;51.978;5.650;2023-07-24T18:26:48;21.6;58.2
78708;SHT31;68037;51.978;5.650;2023-07-24T18:29:17;21.6;58.3
78708;SHT31;68037;51.978;5.650;2023-07-24T18:31:47;21.6;58.4
78708;SHT31;68037;51.978;5.650;2023-07-24T18:34:18;21.6;58.0
78708;SHT31;68037;51.978;5.650;2023-07-24T18:36:47;21.5;58.2
78708;SHT31;68037;51.978;5.650;2023-07-24T18:39:17;21.5;58.0
78708;SHT31;68037;51.978;5.650;2023-07-24T18:41:46;21.5;58.1
78708;SHT31;68037;51.978;5.650;2023-07-24T18:44:15;21.5;58.1
78708;SHT31;68037;51.978;5.650;2023-07-24T18:46:45;21.4;58.1
78708;SHT31;68037;51.978;5.650;2023-07-24T18:49:15;21.4;58.0
78708;SHT31;68037;51.978;5.650;2023-07-24T18:51:44;21.5;57.6
78708;SHT31;68037;51.978;5.650;2023-07-24T18:54:14;21.5;57.1
78708;SHT31;68037;51.978;5.650;2023-07-24T18:56:44;21.5;57.1
78708;SHT31;68037;51.978;5.650;2023-07-24T18:59:13;21.4;57.0
78708;SHT31;68037;51.978;5.650;2023-07-24T19:01:43;21.4;57.0
78708;SHT31;68037;51.978;5.650;2023-07-24T19:04:12;21.4;56.5
78708;SHT31;68037;51.978;5.650;2023-07-24T19:06:42;21.4;56.4
78708;SHT31;68037;51.978;5.650;2023-07-24T19:09:12;21.4;56.3
78708;SHT31;68037;51.978;5.650;2023-07-24T19:11:41;21.4;56.3
78708;SHT31;68037;51.978;5.650;2023-07-24T19:14:13;21.4;56.0
78708;SHT31;68037;51.978;5.650;2023-07-24T19:16:43;21.3;55.9
78708;SHT31;68037;51.978;5.650;2023-07-24T19:19:15;21.3;56.2
78708;SHT31;68037;51.978;5.650;2023-07-24T19:21:45;21.2;56.7
78708;SHT31;68037;51.978;5.650;2023-07-24T19:24:14;21.1;57.7
78708;SHT31;68037;51.978;5.650;2023-07-24T19:26:44;21.0;58.0
78708;SHT31;68037;51.978;5.650;2023-07-24T19:29:15;20.9;58.6
78708;SHT31;68037;51.978;5.650;2023-07-24T19:31:45;20.8;58.9
78708;SHT31;68037;51.978;5.650;2023-07-24T19:34:16;20.8;59.0
78708;SHT31;68037;51.978;5.650;2023-07-24T19:36:46;20.7;58.6
78708;SHT31;68037;51.978;5.650;2023-07-24T19:39:16;20.7;58.7
78708;SHT31;68037;51.978;5.650;2023-07-24T19:41:46;20.7;59.2
78708;SHT31;68037;51.978;5.650;2023-07-24T19:44:17;20.7;58.6
78708;SHT31;68037;51.978;5.650;2023-07-24T19:46:47;20.7;58.6
78708;SHT31;68037;51.978;5.650;2023-07-24T19:49:16;20.7;58.1
78708;SHT31;68037;51.978;5.650;2023-07-24T19:51:46;20.7;57.9
78708;SHT31;68037;51.978;5.650;2023-07-24T19:54:18;20.7;57.8
78708;SHT31;68037;51.978;5.650;2023-07-24T19:56:48;20.7;57.9
78708;SHT31;68037;51.978;5.650;2023-07-24T19:59:18;20.7;57.7
78708;SHT31;68037;51.978;5.650;2023-07-24T20:01:53;20.6;58.0
78708;SHT31;68037;51.978;5.650;2023-07-24T20:04:23;20.6;57.7
78708;SHT31;68037;51.978;5.650;2023-07-24T20:06:52;20.6;57.5
78708;SHT31;68037;51.978;5.650;2023-07-24T20:09:22;20.6;57.6
78708;SHT31;68037;51.978;5.650;2023-07-24T20:11:53;20.6;57.6
78708;SHT31;68037;51.978;5.650;2023-07-24T20:14:22;20.6;57.6
78708;SHT31;68037;51.978;5.650;2023-07-24T20:16:54;20.6;57.8
78708;SHT31;68037;51.978;5.650;2023-07-24T20:19:24;20.5;58.0
78708;SHT31;68037;51.978;5.650;2023-07-24T20:21:53;20.5;57.5
78708;SHT31;68037;51.978;5.650;2023-07-24T20:24:23;20.5;57.7
78708;SHT31;68037;51.978;5.650;2023-07-24T20:26:52;20.5;58.0
78708;SHT31;68037;51.978;5.650;2023-07-24T20:29:22;20.5;58.0
78708;SHT31;68037;51.978;5.650;2023-07-24T20:31:52;20.5;57.7
78708;SHT31;68037;51.978;5.650;2023-07-24T20:34:24;20.6;57.8
78708;SHT31;68037;51.978;5.650;2023-07-24T20:36:53;20.6;57.6
78708;SHT31;68037;51.978;5.650;2023-07-24T20:39:23;20.7;57.4
78708;SHT31;68037;51.978;5.650;2023-07-24T20:41:54;20.6;57.6
78708;SHT31;68037;51.978;5.650;2023-07-24T20:44:24;20.6;57.5
78708;SHT31;68037;51.978;5.650;2023-07-24T20:46:53;20.6;57.6
78708;SHT31;68037;51.978;5.650;2023-07-24T20:49:23;20.6;58.1
78708;SHT31;68037;51.978;5.650;2023-07-24T20:51:52;20.5;57.7
78708;SHT31;68037;51.978;5.650;2023-07-24T20:54:22;20.5;58.3
78708;SHT31;68037;51.978;5.650;2023-07-24T20:56:51;20.5;58.7
78708;SHT31;68037;51.978;5.650;2023-07-24T20:59:24;20.5;58.3
78708;SHT31;68037;51.978;5.650;2023-07-24T21:01:53;20.5;58.4
78708;SHT31;68037;51.978;5.650;2023-07-24T21:04:23;20.5;58.5
78708;SHT31;68037;51.978;5.650;2023-07-24T21:06:53;20.4;57.6
78708;SHT31;68037;51.978;5.650;2023-07-24T21:09:22;20.4;57.6
78708;SHT31;68037;51.978;5.650;2023-07-24T21:11:53;20.4;57.1
78708;SHT31;68037;51.978;5.650;2023-07-24T21:14:25;20.4;57.0
78708;SHT31;68037;51.978;5.650;2023-07-24T21:16:54;20.3;57.1
78708;SHT31;68037;51.978;5.650;2023-07-24T21:19:24;20.3;57.3
78708;SHT31;68037;51.978;5.650;2023-07-24T21:21:54;20.2;56.8
78708;SHT31;68037;51.978;5.650;2023-07-24T21:24:25;20.2;57.0
78708;SHT31;68037;51.978;5.650;2023-07-24T21:26:54;20.2;56.7
78708;SHT31;68037;51.978;5.650;2023-07-24T21:29:24;20.2;56.8
78708;SHT31;68037;51.978;5.650;2023-07-24T21:31:54;20.1;56.7
78708;SHT31;68037;51.978;5.650;2023-07-24T21:34:23;20.1;56.6
78708;SHT31;68037;51.978;5.650;2023-07-24T21:36:53;20.0;57.0
78708;SHT31;68037;51.978;5.650;2023-07-24T21:39:22;20.0;57.2
78708;SHT31;68037;51.978;5.650;2023-07-24T21:41:52;19.9;57.4
78708;SHT31;68037;51.978;5.650;2023-07-24T21:44:21;19.9;57.1
78708;SHT31;68037;51.978;5.650;2023-07-24T21:46:51;19.8;57.1
78708;SHT31;68037;51.978;5.650;2023-07-24T21:49:21;19.8;57.6
78708;SHT31;68037;51.978;5.650;2023-07-24T21:51:51;19.7;57.6
78708;SHT31;68037;51.978;5.650;2023-07-24T21:54:21;19.7;57.5
78708;SHT31;68037;51.978;5.650;2023-07-24T21:56:52;19.6;57.9
78708;SHT31;68037;51.978;5.650;2023-07-24T21:59:21;19.6;57.9
78708;SHT31;68037;51.978;5.650;2023-07-24T22:01:51;19.5;57.9
78708;SHT31;68037;51.978;5.650;2023-07-24T22:04:21;19.5;57.8
78708;SHT31;68037;51.978;5.650;2023-07-24T22:06:50;19.5;57.8
78708;SHT31;68037;51.978;5.650;2023-07-24T22:09:20;19.4;58.1
78708;SHT31;68037;51.978;5.650;2023-07-24T22:11:50;19.4;58.5
78708;SHT31;68037;51.978;5.650;2023-07-24T22:14:19;19.3;58.7
78708;SHT31;68037;51.978;5.650;2023-07-24T22:16:51;19.4;58.8
78708;SHT31;68037;51.978;5.650;2023-07-24T22:19:20;19.4;58.5
78708;SHT31;68037;51.978;5.650;2023-07-24T22:21:49;19.3;58.5
78708;SHT31;68037;51.978;5.650;2023-07-24T22:24:19;19.3;58.5
78708;SHT31;68037;51.978;5.650;2023-07-24T22:26:50;19.3;58.6
78708;SHT31;68037;51.978;5.650;2023-07-24T22:29:20;19.2;58.5
78708;SHT31;68037;51.978;5.650;2023-07-24T22:31:50;19.2;58.7
78708;SHT31;68037;51.978;5.650;2023-07-24T22:34:19;19.2;58.8
78708;SHT31;68037;51.978;5.650;2023-07-24T22:36:49;19.1;58.8
78708;SHT31;68037;51.978;5.650;2023-07-24T22:39:18;19.1;58.7
78708;SHT31;68037;51.978;5.650;2023-07-24T22:41:48;19.0;58.8
78708;SHT31;68037;51.978;5.650;2023-07-24T22:44:18;19.0;59.0
78708;SHT31;68037;51.978;5.650;2023-07-24T22:46:48;18.9;59.1
78708;SHT31;68037;51.978;5.650;2023-07-24T22:49:18;18.9;59.2
78708;SHT31;68037;51.978;5.650;2023-07-24T22:51:49;18.8;59.3
78708;SHT31;68037;51.978;5.650;2023-07-24T22:54:19;18.8;59.4
78708;SHT31;68037;51.978;5.650;2023-07-24T22:56:49;18.7;59.5
78708;SHT31;68037;51.978;5.650;2023-07-24T22:59:21;18.7;59.7
78708;SHT31;68037;51.978;5.650;2023-07-24T23:01:53;18.7;59.7
78708;SHT31;68037;51.978;5.650;2023-07-24T23:04:24;18.6;59.8
78708;SHT31;68037;51.978;5.650;2023-07-24T23:06:54;18.6;60.4
78708;SHT31;68037;51.978;5.650;2023-07-24T23:09:24;18.6;60.3
78708;SHT31;68037;51.978;5.650;2023-07-24T23:11:57;18.6;59.9
78708;SHT31;68037;51.978;5.650;2023-07-24T23:14:26;18.6;60.0
78708;SHT31;68037;51.978;5.650;2023-07-24T23:16:56;18.5;60.0
78708;SHT31;68037;51.978;5.650;2023-07-24T23:19:26;18.5;60.0